sensor_id;sensor_type;location;lat;lon;timestamp;temperature;humidity
75509;DHT22;64214;47.250;11.332;2024-02-14T00:00:12;27.91;56.71
75509;DHT22;64214;47.250;11.332;2024-02-14T00:00:47;27.91;56.82
75509;DHT22;64214;47.250;11.332;2024-02-14T00:01:18;27.89;56.79
75509;DHT22;64214;47.250;11.332;2024-02-14T00:01:49;27.91;56.70
75509;DHT22;64214;47.250;11.332;2024-02-14T00:02:21;27.91;56.58
75509;DHT22;64214;47.250;11.332;2024-02-14T00:02:52;27.89;56.39
75509;DHT22;64214;47.250;11.332;2024-02-14T00:03:23;27.91;56.46
75509;DHT22;64214;47.250;11.332;2024-02-14T00:03:54;27.89;56.39
75509;DHT22;64214;47.250;11.332;2024-02-14T00:04:25;27.88;56.17
75509;DHT22;64214;47.250;11.332;2024-02-14T00:04:56;27.89;56.34
75509;DHT22;64214;47.250;11.332;2024-02-14T00:05:27;27.89;56.57
75509;DHT22;64214;47.250;11.332;2024-02-14T00:05:59;27.89;56.61
75509;DHT22;64214;47.250;11.332;2024-02-14T00:06:34;27.91;56.61
75509;DHT22;64214;47.250;11.332;2024-02-14T00:07:05;27.91;56.61
75509;DHT22;64214;47.250;11.332;2024-02-14T00:07:39;27.91;56.58
75509;DHT22;64214;47.250;11.332;2024-02-14T00:08:13;27.91;56.53
75509;DHT22;64214;47.250;11.332;2024-02-14T00:08:45;27.91;56.72
75509;DHT22;64214;47.250;11.332;2024-02-14T00:09:16;27.91;56.84
75509;DHT22;64214;47.250;11.332;2024-02-14T00:09:47;27.91;56.83
75509;DHT22;64214;47.250;11.332;2024-02-14T00:10:18;27.89;56.89
75509;DHT22;64214;47.250;11.332;2024-02-14T00:10:49;27.92;56.81
75509;DHT22;64214;47.250;11.332;2024-02-14T00:11:19;27.91;56.80
75509;DHT22;64214;47.250;11.332;2024-02-14T00:11:50;27.92;56.61
75509;DHT22;64214;47.250;11.332;2024-02-14T00:12:21;27.91;56.43
75509;DHT22;64214;47.250;11.332;2024-02-14T00:12:52;27.91;56.40
75509;DHT22;64214;47.250;11.332;2024-02-14T00:13:23;27.92;56.34
75509;DHT22;64214;47.250;11.332;2024-02-14T00:13:54;27.89;56.37
75509;DHT22;64214;47.250;11.332;2024-02-14T00:14:26;27.89;56.34
75509;DHT22;64214;47.250;11.332;2024-02-14T00:14:57;27.91;56.36
75509;DHT22;64214;47.250;11.332;2024-02-14T00:15:28;27.92;56.41
75509;DHT22;64214;47.250;11.332;2024-02-14T00:16:00;27.92;56.41
75509;DHT22;64214;47.250;11.332;2024-02-14T00:16:31;27.89;56.38
75509;DHT22;64214;47.250;11.332;2024-02-14T00:17:02;27.92;56.32
75509;DHT22;64214;47.250;11.332;2024-02-14T00:17:33;27.91;56.38
75509;DHT22;64214;47.250;11.332;2024-02-14T00:18:04;27.91;56.37
75509;DHT22;64214;47.250;11.332;2024-02-14T00:18:35;27.89;56.39
75509;DHT22;64214;47.250;11.332;2024-02-14T00:19:06;27.92;56.39
75509;DHT22;64214;47.250;11.332;2024-02-14T00:19:36;27.91;56.31
75509;DHT22;64214;47.250;11.332;2024-02-14T00:20:07;27.92;56.30
75509;DHT22;64214;47.250;11.332;2024-02-14T00:20:41;27.91;56.19
75509;DHT22;64214;47.250;11.332;2024-02-14T00:21:11;27.92;56.01
75509;DHT22;64214;47.250;11.332;2024-02-14T00:21:43;27.91;56.05
75509;DHT22;64214;47.250;11.332;2024-02-14T00:22:14;27.92;56.06
75509;DHT22;64214;47.250;11.332;2024-02-14T00:22:45;27.92;56.11
75509;DHT22;64214;47.250;11.332;2024-02-14T00:23:15;27.93;56.15
75509;DHT22;64214;47.250;11.332;2024-02-14T00:23:46;27.91;56.12
75509;DHT22;64214;47.250;11.332;2024-02-14T00:24:18;27.91;56.05
75509;DHT22;64214;47.250;11.332;2024-02-14T00:24:49;27.92;55.97
75509;DHT22;64214;47.250;11.332;2024-02-14T00:25:19;27.88;55.95
75509;DHT22;64214;47.250;11.332;2024-02-14T00:25:50;27.88;55.98
75509;DHT22;64214;47.250;11.332;2024-02-14T00:26:21;27.89;55.89
75509;DHT22;64214;47.250;11.332;2024-02-14T00:26:52;27.88;55.78
75509;DHT22;64214;47.250;11.332;2024-02-14T00:27:24;27.91;55.78
75509;DHT22;64214;47.250;11.332;2024-02-14T00:27:57;27.88;55.87
75509;DHT22;64214;47.250;11.332;2024-02-14T00:28:31;27.91;55.98
75509;DHT22;64214;47.250;11.332;2024-02-14T00:29:02;27.89;56.04
75509;DHT22;64214;47.250;11.332;2024-02-14T00:29:33;27.91;56.03
75509;DHT22;64214;47.250;11.332;2024-02-14T00:30:06;27.91;55.95
75509;DHT22;64214;47.250;11.332;2024-02-14T00:30:37;27.91;55.99
75509;DHT22;64214;47.250;11.332;2024-02-14T00:31:08;27.91;56.09
75509;DHT22;64214;47.250;11.332;2024-02-14T00:31:39;27.89;56.05
75509;DHT22;64214;47.250;11.332;2024-02-14T00:32:10;27.89;56.27
75509;DHT22;64214;47.250;11.332;2024-02-14T00:32:40;27.91;56.48
75509;DHT22;64214;47.250;11.332;2024-02-14T00:33:11;27.93;56.46
75509;DHT22;64214;47.250;11.332;2024-02-14T00:33:42;27.92;56.35
75509;DHT22;64214;47.250;11.332;2024-02-14T00:34:14;27.91;56.17
75509;DHT22;64214;47.250;11.332;2024-02-14T00:34:45;27.93;56.13
75509;DHT22;64214;47.250;11.332;2024-02-14T00:35:16;27.91;56.04
75509;DHT22;64214;47.250;11.332;2024-02-14T00:35:46;27.91;55.98
75509;DHT22;64214;47.250;11.332;2024-02-14T00:36:17;27.92;55.85
75509;DHT22;64214;47.250;11.332;2024-02-14T00:36:48;27.91;55.86
75509;DHT22;64214;47.250;11.332;2024-02-14T00:37:19;27.91;55.88
75509;DHT22;64214;47.250;11.332;2024-02-14T00:37:50;27.93;55.96
75509;DHT22;64214;47.250;11.332;2024-02-14T00:38:21;27.91;56.05
75509;DHT22;64214;47.250;11.332;2024-02-14T00:38:51;27.91;56.03
75509;DHT22;64214;47.250;11.332;2024-02-14T00:39:22;27.91;55.89
75509;DHT22;64214;47.250;11.332;2024-02-14T00:39:53;27.88;55.95
75509;DHT22;64214;47.250;11.332;2024-02-14T00:40:24;27.91;55.98
75509;DHT22;64214;47.250;11.332;2024-02-14T00:40:55;27.91;55.88
75509;DHT22;64214;47.250;11.332;2024-02-14T00:41:26;27.93;55.84
75509;DHT22;64214;47.250;11.332;2024-02-14T00:42:00;27.91;55.83
75509;DHT22;64214;47.250;11.332;2024-02-14T00:42:30;27.92;55.65
75509;DHT22;64214;47.250;11.332;2024-02-14T00:43:01;27.92;55.78
75509;DHT22;64214;47.250;11.332;2024-02-14T00:43:32;27.91;55.83
75509;DHT22;64214;47.250;11.332;2024-02-14T00:44:03;27.89;55.79
75509;DHT22;64214;47.250;11.332;2024-02-14T00:44:34;27.89;55.79
75509;DHT22;64214;47.250;11.332;2024-02-14T00:45:06;27.91;55.69
75509;DHT22;64214;47.250;11.332;2024-02-14T00:45:39;27.89;55.76
75509;DHT22;64214;47.250;11.332;2024-02-14T00:46:15;27.89;55.76
75509;DHT22;64214;47.250;11.332;2024-02-14T00:46:46;27.91;55.65
75509;DHT22;64214;47.250;11.332;2024-02-14T00:47:17;27.92;55.59
75509;DHT22;64214;47.250;11.332;2024-02-14T00:47:47;27.89;55.53
75509;DHT22;64214;47.250;11.332;2024-02-14T00:48:18;27.92;55.55
75509;DHT22;64214;47.250;11.332;2024-02-14T00:48:49;27.92;55.47
75509;DHT22;64214;47.250;11.332;2024-02-14T00:49:20;27.89;55.49
75509;DHT22;64214;47.250;11.332;2024-02-14T00:49:51;27.91;55.59
75509;DHT22;64214;47.250;11.332;2024-02-14T00:50:22;27.93;55.66
75509;DHT22;64214;47.250;11.332;2024-02-14T00:50:53;27.92;55.65
75509;DHT22;64214;47.250;11.332;2024-02-14T00:51:24;27.91;55.72
75509;DHT22;64214;47.250;11.332;2024-02-14T00:51:55;27.92;55.81
75509;DHT22;64214;47.250;11.332;2024-02-14T00:52:26;27.93;55.81
75509;DHT22;64214;47.250;11.332;2024-02-14T00:52:57;27.91;55.90
75509;DHT22;64214;47.250;11.332;2024-02-14T00:53:28;27.93;56.01
75509;DHT22;64214;47.250;11.332;2024-02-14T00:53:58;27.93;56.05
75509;DHT22;64214;47.250;11.332;2024-02-14T00:54:29;27.93;55.95
75509;DHT22;64214;47.250;11.332;2024-02-14T00:55:00;27.92;55.78
75509;DHT22;64214;47.250;11.332;2024-02-14T00:55:34;27.91;55.67
75509;DHT22;64214;47.250;11.332;2024-02-14T00:56:05;27.91;55.62
75509;DHT22;64214;47.250;11.332;2024-02-14T00:56:36;27.92;55.60
75509;DHT22;64214;47.250;11.332;2024-02-14T00:57:07;27.92;55.54
75509;DHT22;64214;47.250;11.332;2024-02-14T00:57:37;27.93;55.56
75509;DHT22;64214;47.250;11.332;2024-02-14T00:58:08;27.92;55.65
75509;DHT22;64214;47.250;11.332;2024-02-14T00:58:39;27.92;55.72
75509;DHT22;64214;47.250;11.332;2024-02-14T00:59:10;27.91;55.76
75509;DHT22;64214;47.250;11.332;2024-02-14T00:59:41;27.91;55.83
75509;DHT22;64214;47.250;11.332;2024-02-14T01:00:12;27.91;55.87
75509;DHT22;64214;47.250;11.332;2024-02-14T01:00:42;27.91;55.86
75509;DHT22;64214;47.250;11.332;2024-02-14T01:01:14;27.91;55.67
75509;DHT22;64214;47.250;11.332;2024-02-14T01:01:44;27.91;55.66
75509;DHT22;64214;47.250;11.332;2024-02-14T01:02:15;27.92;55.60
75509;DHT22;64214;47.250;11.332;2024-02-14T01:02:46;27.91;55.50
75509;DHT22;64214;47.250;11.332;2024-02-14T01:03:17;27.91;55.48
75509;DHT22;64214;47.250;11.332;2024-02-14T01:03:47;27.92;55.59
75509;DHT22;64214;47.250;11.332;2024-02-14T01:04:18;27.91;55.53
75509;DHT22;64214;47.250;11.332;2024-02-14T01:04:49;27.92;55.56
75509;DHT22;64214;47.250;11.332;2024-02-14T01:05:20;27.92;55.52
75509;DHT22;64214;47.250;11.332;2024-02-14T01:05:50;27.91;55.61
75509;DHT22;64214;47.250;11.332;2024-02-14T01:06:21;27.91;55.67
75509;DHT22;64214;47.250;11.332;2024-02-14T01:06:52;27.91;55.59
75509;DHT22;64214;47.250;11.332;2024-02-14T01:07:23;27.92;55.44
75509;DHT22;64214;47.250;11.332;2024-02-14T01:07:54;27.93;55.41
75509;DHT22;64214;47.250;11.332;2024-02-14T01:08:24;27.92;55.47
75509;DHT22;64214;47.250;11.332;2024-02-14T01:08:55;27.91;55.45
75509;DHT22;64214;47.250;11.332;2024-02-14T01:09:26;27.92;55.37
75509;DHT22;64214;47.250;11.332;2024-02-14T01:09:57;27.92;55.32
75509;DHT22;64214;47.250;11.332;2024-02-14T01:10:28;27.89;55.31
75509;DHT22;64214;47.250;11.332;2024-02-14T01:10:58;27.89;55.22
75509;DHT22;64214;47.250;11.332;2024-02-14T01:11:29;27.89;55.11
75509;DHT22;64214;47.250;11.332;2024-02-14T01:12:00;27.92;55.17
75509;DHT22;64214;47.250;11.332;2024-02-14T01:12:31;27.91;55.27
75509;DHT22;64214;47.250;11.332;2024-02-14T01:13:02;27.91;55.36
75509;DHT22;64214;47.250;11.332;2024-02-14T01:13:33;27.89;55.41
75509;DHT22;64214;47.250;11.332;2024-02-14T01:14:04;27.92;55.37
75509;DHT22;64214;47.250;11.332;2024-02-14T01:14:34;27.92;55.42
75509;DHT22;64214;47.250;11.332;2024-02-14T01:15:05;27.92;55.40
75509;DHT22;64214;47.250;11.332;2024-02-14T01:15:36;27.91;55.53
75509;DHT22;64214;47.250;11.332;2024-02-14T01:16:08;27.92;55.74
75509;DHT22;64214;47.250;11.332;2024-02-14T01:16:42;27.91;55.76
75509;DHT22;64214;47.250;11.332;2024-02-14T01:17:14;27.92;55.78
75509;DHT22;64214;47.250;11.332;2024-02-14T01:17:44;27.92;55.83
75509;DHT22;64214;47.250;11.332;2024-02-14T01:18:18;27.91;55.70
75509;DHT22;64214;47.250;11.332;2024-02-14T01:18:48;27.93;55.59
75509;DHT22;64214;47.250;11.332;2024-02-14T01:19:20;27.92;55.61
75509;DHT22;64214;47.250;11.332;2024-02-14T01:19:51;27.92;55.60
75509;DHT22;64214;47.250;11.332;2024-02-14T01:20:21;27.92;55.53
75509;DHT22;64214;47.250;11.332;2024-02-14T01:20:52;27.91;55.47
75509;DHT22;64214;47.250;11.332;2024-02-14T01:21:24;27.92;55.41
75509;DHT22;64214;47.250;11.332;2024-02-14T01:21:55;27.91;55.32
75509;DHT22;64214;47.250;11.332;2024-02-14T01:22:27;27.92;55.40
75509;DHT22;64214;47.250;11.332;2024-02-14T01:22:58;27.92;55.36
75509;DHT22;64214;47.250;11.332;2024-02-14T01:23:29;27.91;55.40
75509;DHT22;64214;47.250;11.332;2024-02-14T01:24:00;27.91;55.43
75509;DHT22;64214;47.250;11.332;2024-02-14T01:24:31;27.93;55.40
75509;DHT22;64214;47.250;11.332;2024-02-14T01:25:03;27.92;55.40
75509;DHT22;64214;47.250;11.332;2024-02-14T01:25:35;27.92;55.34
75509;DHT22;64214;47.250;11.332;2024-02-14T01:26:06;27.93;55.37
75509;DHT22;64214;47.250;11.332;2024-02-14T01:26:36;27.92;55.38
75509;DHT22;64214;47.250;11.332;2024-02-14T01:27:07;27.91;55.36
75509;DHT22;64214;47.250;11.332;2024-02-14T01:27:39;27.92;55.19
75509;DHT22;64214;47.250;11.332;2024-02-14T01:28:09;27.92;55.14
75509;DHT22;64214;47.250;11.332;2024-02-14T01:28:40;27.92;55.08
75509;DHT22;64214;47.250;11.332;2024-02-14T01:29:11;27.92;55.14
75509;DHT22;64214;47.250;11.332;2024-02-14T01:29:42;27.92;55.20
75509;DHT22;64214;47.250;11.332;2024-02-14T01:30:14;27.91;55.24
75509;DHT22;64214;47.250;11.332;2024-02-14T01:30:45;27.92;55.24
75509;DHT22;64214;47.250;11.332;2024-02-14T01:31:16;27.91;55.25
75509;DHT22;64214;47.250;11.332;2024-02-14T01:31:46;27.89;55.04
75509;DHT22;64214;47.250;11.332;2024-02-14T01:32:17;27.91;54.94
75509;DHT22;64214;47.250;11.332;2024-02-14T01:32:48;27.89;54.90
75509;DHT22;64214;47.250;11.332;2024-02-14T01:33:19;27.89;54.81
75509;DHT22;64214;47.250;11.332;2024-02-14T01:33:50;27.89;54.63
75509;DHT22;64214;47.250;11.332;2024-02-14T01:34:20;27.88;54.78
75509;DHT22;64214;47.250;11.332;2024-02-14T01:34:51;27.89;54.97
75509;DHT22;64214;47.250;11.332;2024-02-14T01:35:22;27.92;55.06
75509;DHT22;64214;47.250;11.332;2024-02-14T01:35:53;27.91;55.14
75509;DHT22;64214;47.250;11.332;2024-02-14T01:36:23;27.91;55.20
75509;DHT22;64214;47.250;11.332;2024-02-14T01:36:54;27.91;55.31
75509;DHT22;64214;47.250;11.332;2024-02-14T01:37:25;27.95;55.14
75509;DHT22;64214;47.250;11.332;2024-02-14T01:37:56;27.92;55.04
75509;DHT22;64214;47.250;11.332;2024-02-14T01:38:28;27.91;55.23
75509;DHT22;64214;47.250;11.332;2024-02-14T01:38:59;27.92;55.36
75509;DHT22;64214;47.250;11.332;2024-02-14T01:39:30;27.91;55.44
75509;DHT22;64214;47.250;11.332;2024-02-14T01:40:01;27.91;55.52
75509;DHT22;64214;47.250;11.332;2024-02-14T01:40:33;27.92;55.49
75509;DHT22;64214;47.250;11.332;2024-02-14T01:41:04;27.91;55.40
75509;DHT22;64214;47.250;11.332;2024-02-14T01:41:35;27.92;55.35
75509;DHT22;64214;47.250;11.332;2024-02-14T01:42:06;27.92;55.36
75509;DHT22;64214;47.250;11.332;2024-02-14T01:42:37;27.95;55.23
75509;DHT22;64214;47.250;11.332;2024-02-14T01:43:09;27.93;55.19
75509;DHT22;64214;47.250;11.332;2024-02-14T01:43:40;27.92;55.14
75509;DHT22;64214;47.250;11.332;2024-02-14T01:44:11;27.95;55.08
75509;DHT22;64214;47.250;11.332;2024-02-14T01:44:41;27.91;55.11
75509;DHT22;64214;47.250;11.332;2024-02-14T01:45:13;27.92;55.09
75509;DHT22;64214;47.250;11.332;2024-02-14T01:45:44;27.91;55.13
75509;DHT22;64214;47.250;11.332;2024-02-14T01:46:15;27.92;55.09
75509;DHT22;64214;47.250;11.332;2024-02-14T01:46:46;27.93;55.00
75509;DHT22;64214;47.250;11.332;2024-02-14T01:47:17;27.92;55.12
75509;DHT22;64214;47.250;11.332;2024-02-14T01:47:49;27.93;55.18
75509;DHT22;64214;47.250;11.332;2024-02-14T01:48:21;27.93;55.16
75509;DHT22;64214;47.250;11.332;2024-02-14T01:48:52;27.93;55.09
75509;DHT22;64214;47.250;11.332;2024-02-14T01:49:23;27.93;55.04
75509;DHT22;64214;47.250;11.332;2024-02-14T01:49:54;27.91;55.02
75509;DHT22;64214;47.250;11.332;2024-02-14T01:50:25;27.91;54.99
75509;DHT22;64214;47.250;11.332;2024-02-14T01:51:00;27.91;55.00
75509;DHT22;64214;47.250;11.332;2024-02-14T01:51:31;27.92;54.90
75509;DHT22;64214;47.250;11.332;2024-02-14T01:52:02;27.92;55.03
75509;DHT22;64214;47.250;11.332;2024-02-14T01:52:33;27.92;54.96
75509;DHT22;64214;47.250;11.332;2024-02-14T01:53:05;27.92;54.93
75509;DHT22;64214;47.250;11.332;2024-02-14T01:53:36;27.92;54.96
75509;DHT22;64214;47.250;11.332;2024-02-14T01:54:08;27.91;54.84
75509;DHT22;64214;47.250;11.332;2024-02-14T01:54:39;27.92;54.75
75509;DHT22;64214;47.250;11.332;2024-02-14T01:55:10;27.92;54.76
75509;DHT22;64214;47.250;11.332;2024-02-14T01:55:42;27.91;54.59
75509;DHT22;64214;47.250;11.332;2024-02-14T01:56:13;27.91;54.52
75509;DHT22;64214;47.250;11.332;2024-02-14T01:56:44;27.89;54.59
75509;DHT22;64214;47.250;11.332;2024-02-14T01:57:15;27.89;54.68
75509;DHT22;64214;47.250;11.332;2024-02-14T01:57:46;27.91;54.64
75509;DHT22;64214;47.250;11.332;2024-02-14T01:58:17;27.92;54.85
75509;DHT22;64214;47.250;11.332;2024-02-14T01:58:48;27.91;54.98
75509;DHT22;64214;47.250;11.332;2024-02-14T01:59:19;27.91;54.98
75509;DHT22;64214;47.250;11.332;2024-02-14T01:59:50;27.91;54.93
75509;DHT22;64214;47.250;11.332;2024-02-14T02:00:22;27.93;55.01
75509;DHT22;64214;47.250;11.332;2024-02-14T02:00:53;27.91;55.13
75509;DHT22;64214;47.250;11.332;2024-02-14T02:01:27;27.93;55.31
75509;DHT22;64214;47.250;11.332;2024-02-14T02:01:58;27.92;55.33
75509;DHT22;64214;47.250;11.332;2024-02-14T02:02:30;27.91;55.25
75509;DHT22;64214;47.250;11.332;2024-02-14T02:03:00;27.93;55.10
75509;DHT22;64214;47.250;11.332;2024-02-14T02:03:31;27.93;55.07
75509;DHT22;64214;47.250;11.332;2024-02-14T02:04:06;27.92;55.01
75509;DHT22;64214;47.250;11.332;2024-02-14T02:04:37;27.93;54.94
75509;DHT22;64214;47.250;11.332;2024-02-14T02:05:08;27.91;54.94
75509;DHT22;64214;47.250;11.332;2024-02-14T02:05:39;27.96;54.88
75509;DHT22;64214;47.250;11.332;2024-02-14T02:06:10;27.93;54.90
75509;DHT22;64214;47.250;11.332;2024-02-14T02:06:40;27.92;54.89
75509;DHT22;64214;47.250;11.332;2024-02-14T02:07:12;27.93;54.90
75509;DHT22;64214;47.250;11.332;2024-02-14T02:07:43;27.93;54.92
75509;DHT22;64214;47.250;11.332;2024-02-14T02:08:14;27.92;54.88
75509;DHT22;64214;47.250;11.332;2024-02-14T02:08:45;27.89;54.79
75509;DHT22;64214;47.250;11.332;2024-02-14T02:09:16;27.92;54.77
75509;DHT22;64214;47.250;11.332;2024-02-14T02:09:47;27.93;54.80
75509;DHT22;64214;47.250;11.332;2024-02-14T02:10:18;27.93;54.76
75509;DHT22;64214;47.250;11.332;2024-02-14T02:10:51;27.93;54.69
75509;DHT22;64214;47.250;11.332;2024-02-14T02:11:22;27.91;54.63
75509;DHT22;64214;47.250;11.332;2024-02-14T02:11:53;27.93;54.69
75509;DHT22;64214;47.250;11.332;2024-02-14T02:12:26;27.91;54.79
75509;DHT22;64214;47.250;11.332;2024-02-14T02:12:58;27.91;54.76
75509;DHT22;64214;47.250;11.332;2024-02-14T02:13:29;27.93;54.76
75509;DHT22;64214;47.250;11.332;2024-02-14T02:14:00;27.93;54.79
75509;DHT22;64214;47.250;11.332;2024-02-14T02:14:31;27.89;54.77
75509;DHT22;64214;47.250;11.332;2024-02-14T02:15:02;27.93;54.77
75509;DHT22;64214;47.250;11.332;2024-02-14T02:15:33;27.92;54.83
75509;DHT22;64214;47.250;11.332;2024-02-14T02:16:03;27.92;54.82
75509;DHT22;64214;47.250;11.332;2024-02-14T02:16:35;27.92;54.74
75509;DHT22;64214;47.250;11.332;2024-02-14T02:17:07;27.91;54.55
75509;DHT22;64214;47.250;11.332;2024-02-14T02:17:40;27.92;54.45
75509;DHT22;64214;47.250;11.332;2024-02-14T02:18:11;27.91;54.33
75509;DHT22;64214;47.250;11.332;2024-02-14T02:18:42;27.89;54.39
75509;DHT22;64214;47.250;11.332;2024-02-14T02:19:13;27.91;54.49
75509;DHT22;64214;47.250;11.332;2024-02-14T02:19:45;27.91;54.58
75509;DHT22;64214;47.250;11.332;2024-02-14T02:20:16;27.91;54.71
75509;DHT22;64214;47.250;11.332;2024-02-14T02:20:47;27.91;54.74
75509;DHT22;64214;47.250;11.332;2024-02-14T02:21:18;27.93;54.77
75509;DHT22;64214;47.250;11.332;2024-02-14T02:21:53;27.92;54.66
75509;DHT22;64214;47.250;11.332;2024-02-14T02:22:24;27.92;54.64
75509;DHT22;64214;47.250;11.332;2024-02-14T02:22:55;27.92;54.83
75509;DHT22;64214;47.250;11.332;2024-02-14T02:23:26;27.91;54.96
75509;DHT22;64214;47.250;11.332;2024-02-14T02:23:56;27.95;54.93
75509;DHT22;64214;47.250;11.332;2024-02-14T02:24:27;27.91;55.01
75509;DHT22;64214;47.250;11.332;2024-02-14T02:24:58;27.93;54.96
75509;DHT22;64214;47.250;11.332;2024-02-14T02:25:29;27.92;54.87
75509;DHT22;64214;47.250;11.332;2024-02-14T02:26:00;27.93;54.79
75509;DHT22;64214;47.250;11.332;2024-02-14T02:26:31;27.95;54.75
75509;DHT22;64214;47.250;11.332;2024-02-14T02:27:03;27.93;54.62
75509;DHT22;64214;47.250;11.332;2024-02-14T02:27:34;27.93;54.62
75509;DHT22;64214;47.250;11.332;2024-02-14T02:28:08;27.96;54.58
75509;DHT22;64214;47.250;11.332;2024-02-14T02:28:39;27.92;54.63
75509;DHT22;64214;47.250;11.332;2024-02-14T02:29:10;27.92;54.72
75509;DHT22;64214;47.250;11.332;2024-02-14T02:29:41;27.95;54.66
75509;DHT22;64214;47.250;11.332;2024-02-14T02:30:12;27.92;54.73
75509;DHT22;64214;47.250;11.332;2024-02-14T02:30:44;27.93;54.71
75509;DHT22;64214;47.250;11.332;2024-02-14T02:31:16;27.92;54.61
75509;DHT22;64214;47.250;11.332;2024-02-14T02:31:47;27.92;54.56
75509;DHT22;64214;47.250;11.332;2024-02-14T02:32:18;27.93;54.63
75509;DHT22;64214;47.250;11.332;2024-02-14T02:32:49;27.95;54.62
75509;DHT22;64214;47.250;11.332;2024-02-14T02:33:21;27.95;54.55
75509;DHT22;64214;47.250;11.332;2024-02-14T02:33:52;27.95;54.52
75509;DHT22;64214;47.250;11.332;2024-02-14T02:34:23;27.93;54.62
75509;DHT22;64214;47.250;11.332;2024-02-14T02:34:54;27.93;54.69
75509;DHT22;64214;47.250;11.332;2024-02-14T02:35:24;27.95;54.71
75509;DHT22;64214;47.250;11.332;2024-02-14T02:35:56;27.92;54.75
75509;DHT22;64214;47.250;11.332;2024-02-14T02:36:27;27.93;54.76
75509;DHT22;64214;47.250;11.332;2024-02-14T02:37:00;27.95;54.61
75509;DHT22;64214;47.250;11.332;2024-02-14T02:37:31;27.95;54.56
75509;DHT22;64214;47.250;11.332;2024-02-14T02:38:02;27.93;54.53
75509;DHT22;64214;47.250;11.332;2024-02-14T02:38:33;27.93;54.41
75509;DHT22;64214;47.250;11.332;2024-02-14T02:39:04;27.91;54.33
75509;DHT22;64214;47.250;11.332;2024-02-14T02:39:35;27.92;54.29
75509;DHT22;64214;47.250;11.332;2024-02-14T02:40:07;27.91;54.14
75509;DHT22;64214;47.250;11.332;2024-02-14T02:40:40;27.92;53.98
75509;DHT22;64214;47.250;11.332;2024-02-14T02:41:11;27.93;54.00
75509;DHT22;64214;47.250;11.332;2024-02-14T02:41:42;27.91;54.04
75509;DHT22;64214;47.250;11.332;2024-02-14T02:42:13;27.92;54.26
75509;DHT22;64214;47.250;11.332;2024-02-14T02:42:45;27.91;54.37
75509;DHT22;64214;47.250;11.332;2024-02-14T02:43:15;27.92;54.43
75509;DHT22;64214;47.250;11.332;2024-02-14T02:43:46;27.92;54.47
75509;DHT22;64214;47.250;11.332;2024-02-14T02:44:21;27.93;54.45
75509;DHT22;64214;47.250;11.332;2024-02-14T02:44:51;27.92;54.48
75509;DHT22;64214;47.250;11.332;2024-02-14T02:45:22;27.93;54.58
75509;DHT22;64214;47.250;11.332;2024-02-14T02:45:53;27.92;54.61
75509;DHT22;64214;47.250;11.332;2024-02-14T02:46:24;27.93;54.77
75509;DHT22;64214;47.250;11.332;2024-02-14T02:46:56;27.93;54.93
75509;DHT22;64214;47.250;11.332;2024-02-14T02:47:27;27.93;54.93
75509;DHT22;64214;47.250;11.332;2024-02-14T02:47:58;27.92;54.79
75509;DHT22;64214;47.250;11.332;2024-02-14T02:48:31;27.95;54.66
75509;DHT22;64214;47.250;11.332;2024-02-14T02:49:02;27.93;54.52
75509;DHT22;64214;47.250;11.332;2024-02-14T02:49:32;27.95;54.51
75509;DHT22;64214;47.250;11.332;2024-02-14T02:50:03;27.95;54.58
75509;DHT22;64214;47.250;11.332;2024-02-14T02:50:34;27.92;54.53
75509;DHT22;64214;47.250;11.332;2024-02-14T02:51:05;27.95;54.44
75509;DHT22;64214;47.250;11.332;2024-02-14T02:51:36;27.95;54.41
75509;DHT22;64214;47.250;11.332;2024-02-14T02:52:07;27.93;54.33
75509;DHT22;64214;47.250;11.332;2024-02-14T02:52:38;27.95;54.41
75509;DHT22;64214;47.250;11.332;2024-02-14T02:53:09;27.92;54.44
75509;DHT22;64214;47.250;11.332;2024-02-14T02:53:40;27.93;54.52
75509;DHT22;64214;47.250;11.332;2024-02-14T02:54:10;27.92;54.46
75509;DHT22;64214;47.250;11.332;2024-02-14T02:54:42;27.92;54.42
75509;DHT22;64214;47.250;11.332;2024-02-14T02:55:14;27.92;54.33
75509;DHT22;64214;47.250;11.332;2024-02-14T02:55:48;27.95;54.31
75509;DHT22;64214;47.250;11.332;2024-02-14T02:56:22;27.93;54.37
75509;DHT22;64214;47.250;11.332;2024-02-14T02:56:52;27.95;54.37
75509;DHT22;64214;47.250;11.332;2024-02-14T02:57:23;27.92;54.35
75509;DHT22;64214;47.250;11.332;2024-02-14T02:57:54;27.93;54.37
75509;DHT22;64214;47.250;11.332;2024-02-14T02:58:26;27.95;54.42
75509;DHT22;64214;47.250;11.332;2024-02-14T02:58:57;27.93;54.39
75509;DHT22;64214;47.250;11.332;2024-02-14T02:59:27;27.93;54.47
75509;DHT22;64214;47.250;11.332;2024-02-14T03:00:00;27.91;54.37
75509;DHT22;64214;47.250;11.332;2024-02-14T03:00:30;27.95;54.30
75509;DHT22;64214;47.250;11.332;2024-02-14T03:01:01;27.93;54.24
75509;DHT22;64214;47.250;11.332;2024-02-14T03:01:35;27.92;54.09
75509;DHT22;64214;47.250;11.332;2024-02-14T03:02:06;27.92;54.06
75509;DHT22;64214;47.250;11.332;2024-02-14T03:02:39;27.93;54.01
75509;DHT22;64214;47.250;11.332;2024-02-14T03:03:14;27.92;53.70
75509;DHT22;64214;47.250;11.332;2024-02-14T03:03:46;27.92;53.73
75509;DHT22;64214;47.250;11.332;2024-02-14T03:04:17;27.91;53.72
75509;DHT22;64214;47.250;11.332;2024-02-14T03:04:49;27.93;53.96
75509;DHT22;64214;47.250;11.332;2024-02-14T03:05:21;27.93;54.18
75509;DHT22;64214;47.250;11.332;2024-02-14T03:05:54;27.92;54.29
75509;DHT22;64214;47.250;11.332;2024-02-14T03:06:25;27.93;54.25
75509;DHT22;64214;47.250;11.332;2024-02-14T03:06:57;27.95;54.04
75509;DHT22;64214;47.250;11.332;2024-02-14T03:07:29;27.96;54.19
75509;DHT22;64214;47.250;11.332;2024-02-14T03:07:59;27.93;54.28
75509;DHT22;64214;47.250;11.332;2024-02-14T03:08:31;27.93;54.36
75509;DHT22;64214;47.250;11.332;2024-02-14T03:09:03;27.93;54.59
75509;DHT22;64214;47.250;11.332;2024-02-14T03:09:34;27.96;54.65
75509;DHT22;64214;47.250;11.332;2024-02-14T03:10:05;27.93;54.61
75509;DHT22;64214;47.250;11.332;2024-02-14T03:10:36;27.95;54.56
75509;DHT22;64214;47.250;11.332;2024-02-14T03:11:07;27.92;54.51
75509;DHT22;64214;47.250;11.332;2024-02-14T03:11:38;27.95;54.34
75509;DHT22;64214;47.250;11.332;2024-02-14T03:12:09;27.96;54.16
75509;DHT22;64214;47.250;11.332;2024-02-14T03:12:40;27.93;54.20
75509;DHT22;64214;47.250;11.332;2024-02-14T03:13:11;27.95;54.20
75509;DHT22;64214;47.250;11.332;2024-02-14T03:13:44;27.95;54.26
75509;DHT22;64214;47.250;11.332;2024-02-14T03:14:15;27.91;54.33